Mari Lampton — WDE3648 — position and weather

sailwx.info

Track history (hours):
 
Tides and Currents Weather Stations Pressure Air Temp Water Temp Dewpoint Dewpoint Depression Visibility Wind Speed Wind Dir Waves Ship Positions

Mari Lampton

Owner: MAgnolia Marine Transport Company, Vicksburg, MS. More information available from US FCC via Universal Licensing System and Coast Guard Vessel Documentation Center.

Last reported at 2017-Jun-18 15:28 UTC. Time now 2017-Nov-21 17:43 UTC.
Position N 32°36' W 091°09'.
Warning: this ship's position is months out of date.

Length 34 m.

Type: Towing. MMSI: 367342210.

Date/timePositionNaut miles runAvg speedWind from/ knotsBaromVisibWave heightAir tempDewpointWater temp
2017-Jun-18 15:28N 32°36' W 091°09'2 4.6
2017-Jun-18 15:01N 32°35' W 091°07'5 4.3
2017-Jun-18 13:50N 32°30' W 091°07'1 4.5
2017-Jun-18 13:31N 32°28' W 091°06'2 4.8
2017-Jun-18 13:01N 32°27' W 091°04'2 4.6
2017-Jun-18 12:30N 32°26' W 091°02'2 4.6
2017-Jun-18 12:01N 32°24' W 090°60'3 5.8
2017-Jun-18 11:31N 32°22' W 091°00'3 5.8
2017-Jun-18 11:01N 32°21' W 090°57'3 5.0
2017-Jun-18 10:30N 32°20' W 090°54'2 3.9
2017-Jun-18 10:01N 32°18' W 090°55'2 5.0
2017-Jun-18 09:30N 32°17' W 090°57'2 4.5
2017-Jun-18 09:00N 32°15' W 090°59'3 4.9
2017-Jun-18 08:30N 32°12' W 090°59'2 4.5
2017-Jun-18 08:01N 32°10' W 090°60'2 4.7
2017-Jun-18 07:31N 32°08' W 091°00'3 4.2
2017-Jun-18 06:54N 32°08' W 091°03'2 5.5
2017-Jun-18 06:30N 32°08' W 091°06'  
Track history (hours):
 
Tides and Currents Weather Stations Pressure Air Temp Water Temp Dewpoint Dewpoint Depression Visibility Wind Speed Wind Dir Waves Ship Positions

Mari Lampton

Owner: MAgnolia Marine Transport Company, Vicksburg, MS. More information available from US FCC via Universal Licensing System and Coast Guard Vessel Documentation Center.

Last reported at 2017-Jun-18 15:28 UTC. Time now 2017-Nov-21 17:43 UTC.
Position N 32°36' W 091°09'.
Warning: this ship's position is months out of date.

Length 34 m.

Type: Towing. MMSI: 367342210.

Date/timePositionNaut miles runAvg speedWind from/ knotsBaromVisibWave heightAir tempDewpointWater temp
2017-Jun-18 15:28N 32°36' W 091°09'2 4.6
2017-Jun-18 15:01N 32°35' W 091°07'5 4.3
2017-Jun-18 13:50N 32°30' W 091°07'1 4.5
2017-Jun-18 13:31N 32°28' W 091°06'2 4.8
2017-Jun-18 13:01N 32°27' W 091°04'2 4.6
2017-Jun-18 12:30N 32°26' W 091°02'2 4.6
2017-Jun-18 12:01N 32°24' W 090°60'3 5.8
2017-Jun-18 11:31N 32°22' W 091°00'3 5.8
2017-Jun-18 11:01N 32°21' W 090°57'3 5.0
2017-Jun-18 10:30N 32°20' W 090°54'2 3.9
2017-Jun-18 10:01N 32°18' W 090°55'2 5.0
2017-Jun-18 09:30N 32°17' W 090°57'2 4.5
2017-Jun-18 09:00N 32°15' W 090°59'3 4.9
2017-Jun-18 08:30N 32°12' W 090°59'2 4.5
2017-Jun-18 08:01N 32°10' W 090°60'2 4.7
2017-Jun-18 07:31N 32°08' W 091°00'3 4.2
2017-Jun-18 06:54N 32°08' W 091°03'2 5.5
2017-Jun-18 06:30N 32°08' W 091°06'  

Dump ship's entire track history